CheckWX is a tool to help pilots better visualize weather data.  It is not intended as a substitute for an official pre-flight weather briefing.

22:33:17 UTC

KAEX TAF
Alexandria International Airport
Alexandria, Louisiana, USA
KAEX 061943Z 0620/0718 32008KT P6SM BKN035 FM070000 35005KT P6SM BKN030 FM070600 01005KT P6SM OVC012 TEMPO 0711/0714 6SM BR OVC007 FM071400 03006KT P6SM SCT015 BKN030

Dec-6@
20:00 UTC

Dec-6 @ 20:00 UTC

Dec-7@
00:00 UTC

Dec-7 @ 00:00 UTC

KAEX 061943Z 0620/0718 32008KT P6SM BKN035
Wind
  • 320° at 8 KTS
Cloud Levels
  • Broken at 3,500' AGL

Dec-7@
00:00 UTC

Dec-7 @ 00:00 UTC

Dec-7@
06:00 UTC

Dec-7 @ 06:00 UTC

FM070000 35005KT P6SM BKN030

From

From Standard forecast or significant change

Wind
  • 350° at 5 KTS
Cloud Levels
  • Broken at 3,000' AGL

Dec-7@
06:00 UTC

Dec-7 @ 06:00 UTC

Dec-7@
14:00 UTC

Dec-7 @ 14:00 UTC

FM070600 01005KT P6SM OVC012

From

From Standard forecast or significant change

Wind
  • 010° at 5 KTS
Cloud Levels
  • Overcast at 1,200' AGL

Dec-7@
11:00 UTC

Dec-7 @ 11:00 UTC

Dec-7@
14:00 UTC

Dec-7 @ 14:00 UTC

TEMPO 0711/0714 6SM BR OVC007

Temporary

Temporary Changes expected for less than half the time period

Conditions
Mist
Cloud Levels
  • Overcast at 700' AGL

Dec-7@
14:00 UTC

Dec-7 @ 14:00 UTC

Dec-7@
18:00 UTC

Dec-7 @ 18:00 UTC

FM071400 03006KT P6SM SCT015 BKN030

From

From Standard forecast or significant change

Wind
  • 030° at 6 KTS
Cloud Levels
  • Scattered at 1,500' AGL
  • Broken at 3,000' AGL